Airfield :
LOGIN :

Register | Disclaimer

   EN    FR    IT 

 










Legend :    VFR   Marginal VFR   IFR   Intensive IFR   Very Intensive IFR
Visi :
Ceiling :
>= 8 km
>= 3000ft
5 to 8 km
1000 to 3000 ft
1500m to 5 km
500 to 1000 ft
800 to 1500m
200 to 500 ft
< 800m
< 200 ft
Symbols :   Thunderstorms  Fog  Heavy snow  Heavy precipitations  Wind > 20 kt
SIGMETs :     Misc.  Thunderstorms  Icing  Turbulence  Mountain Waves  Volcanic Ashes






- Airport Elevation : 686 ft
- IATA code : URS


UUOK - Vostochny

CURRENT METAR :
  • 281530Z 18003MPS 4000 BR OVC005 M00/M01 Q1011 R12/150050 NOSIG RMK QFE741/0988

EXPIRED METARs :
  • 281500Z 18004MPS 4000 BR OVC005 M00/M01 Q1011 R12/150050 NOSIG RMK QFE741/0988
  • 281430Z 18004MPS 4000 BR OVC005 M00/M01 Q1011 R12/150050 NOSIG RMK QBB150 QFE741/0988
  • 281400Z 18004MPS 3600 BR OVC004 M00/M01 Q1011 R12/150050 NOSIG RMK QBB140 QFE741/0988
  • 281330Z 19004MPS 3800 BR OVC004 M00/M01 Q1011 R12/150050 NOSIG RMK QBB140 QFE741/0988
  • 281300Z 19005MPS 4100 BR OVC005 M00/M01 Q1011 R12/150050 NOSIG RMK QFE741/0988

TAF TAF UUOK
Valid from the 28 at 15:00 until the 29 at 00:00 UTC


281400Z 2815/2824 18003MPS 2100 BR OVC003
TEMPO 2815/2818 1000 BR
TEMPO 2818/2824 0600 FZDZ FG OVC002



MET'MAP, your aeronautical weather chart ! - Copyright ORBIFLY December 2007 - Disclaimer

ORBIFLY MET'MAP TEAM :

Programming & Development : Alexandra Zaïnal
Concept & original design : Baudouin d'Aumeries
Assistance for programming : Marc-Olivier Méhu
Technical & hardware support : Manuel Goepfert

Contact : metmap@orbifly.com




SOURCES & CREDITS :

   NOAA